Time;durP1;ratioP1;P1;durP2;ratioP2;P2;SDS_P1;SDS_P2;PMS_P1;PMS_P2;Temp;Humidity;BMP_temperature;BMP_pressure;BME280_temperature;BME280_humidity;BME280_pressure;Samples;Min_cycle;Max_cycle;Signal;HPM_P1;HPM_P2
2023/07/19 00:01:42;;;;;;;43.25;31.33;;;;;;;;;;5044751;28;20724;-71
2023/07/19 00:04:07;;;;;;;73.57;47.35;;;;;;;;;;5044762;28;20480;-71
2023/07/19 00:06:35;;;;;;;52.03;35.45;;;;;;;;;;5042876;28;20041;-71
2023/07/19 00:09:00;;;;;;;60.70;41.05;;;;;;;;;;5044664;28;20040;-71
2023/07/19 00:11:26;;;;;;;78.03;51.75;;;;;;;;;;5044909;28;20103;-71
2023/07/19 00:13:52;;;;;;;86.00;59.85;;;;;;;;;;5043473;28;20451;-71
2023/07/19 00:16:17;;;;;;;93.35;68.32;;;;;;;;;;5045196;28;20400;-71
2023/07/19 00:18:43;;;;;;;96.35;66.88;;;;;;;;;;5044069;28;20424;-71
2023/07/19 00:21:09;;;;;;;95.85;66.93;;;;;;;;;;5046178;28;20033;-71
2023/07/19 00:23:34;;;;;;;91.40;65.57;;;;;;;;;;5042895;28;20045;-72
2023/07/19 00:26:00;;;;;;;96.40;64.88;;;;;;;;;;5045896;28;20040;-72
2023/07/19 00:28:26;;;;;;;84.88;57.78;;;;;;;;;;5045894;28;20029;-71
2023/07/19 00:31:04;;;;;;;78.10;49.67;;;;;;;;;;5042803;28;20040;-71
2023/07/19 00:33:31;;;;;;;50.13;34.03;;;;;;;;;;5044731;28;20047;-71
2023/07/19 00:35:56;;;;;;;49.97;35.05;;;;;;;;;;5044930;28;20112;-71
2023/07/19 00:38:22;;;;;;;68.75;48.05;;;;;;;;;;5043105;28;20630;-71
2023/07/19 00:40:49;;;;;;;83.97;55.05;;;;;;;;;;5042207;28;20156;-71
2023/07/19 00:43:15;;;;;;;98.80;56.67;;;;;;;;;;5042767;28;20063;-71
2023/07/19 00:45:46;;;;;;;49.38;33.38;;;;;;;;;;5044379;28;20711;-71
2023/07/19 00:48:13;;;;;;;49.22;29.80;;;;;;;;;;5049934;28;20091;-71
2023/07/19 00:50:38;;;;;;;57.67;34.75;;;;;;;;;;5043164;28;20037;-71
2023/07/19 00:53:05;;;;;;;101.13;59.80;;;;;;;;;;5043060;28;20040;-71
2023/07/19 00:55:30;;;;;;;89.65;54.80;;;;;;;;;;5043408;28;20051;-71
2023/07/19 00:57:56;;;;;;;95.65;50.35;;;;;;;;;;5037767;28;20041;-71
2023/07/19 01:00:23;;;;;;;73.53;43.22;;;;;;;;;;5058016;28;20744;-72
2023/07/19 01:02:49;;;;;;;83.03;44.47;;;;;;;;;;5043365;28;20699;-72
2023/07/19 01:05:16;;;;;;;96.18;51.20;;;;;;;;;;5041840;28;20040;-72
2023/07/19 01:07:41;;;;;;;120.80;68.88;;;;;;;;;;5047837;28;20040;-72
2023/07/19 01:10:08;;;;;;;112.93;64.60;;;;;;;;;;5046946;28;20033;-72
2023/07/19 01:12:35;;;;;;;127.57;67.70;;;;;;;;;;5045154;28;20029;-71
2023/07/19 01:15:05;;;;;;;130.30;72.10;;;;;;;;;;5047095;28;20291;-72
2023/07/19 01:17:31;;;;;;;128.55;70.57;;;;;;;;;;5046645;28;20488;-72
2023/07/19 01:19:56;;;;;;;120.95;67.43;;;;;;;;;;5046617;28;20083;-72
2023/07/19 01:22:22;;;;;;;116.82;59.63;;;;;;;;;;5045318;28;20049;-72
2023/07/19 01:24:48;;;;;;;117.85;61.40;;;;;;;;;;5048468;28;20110;-73
2023/07/19 01:27:13;;;;;;;136.75;71.40;;;;;;;;;;5046660;28;20048;-72
2023/07/19 01:29:39;;;;;;;146.32;69.50;;;;;;;;;;5046688;28;20091;-72
2023/07/19 01:32:05;;;;;;;142.57;62.15;;;;;;;;;;5045666;28;20036;-72
2023/07/19 01:34:31;;;;;;;118.90;58.75;;;;;;;;;;5046498;28;20040;-72
2023/07/19 01:36:56;;;;;;;75.35;42.88;;;;;;;;;;5046318;28;20527;-73
2023/07/19 01:39:22;;;;;;;106.10;52.22;;;;;;;;;;5044880;28;20079;-72
2023/07/19 01:41:48;;;;;;;80.68;43.97;;;;;;;;;;5047698;28;20075;-72
2023/07/19 01:44:15;;;;;;;67.80;39.55;;;;;;;;;;5046429;28;20037;-72
2023/07/19 01:46:41;;;;;;;36.70;26.25;;;;;;;;;;5047671;28;20043;-72
2023/07/19 01:49:07;;;;;;;55.47;32.45;;;;;;;;;;5044060;28;20028;-72
2023/07/19 01:51:33;;;;;;;64.05;33.85;;;;;;;;;;5046186;28;20032;-72
2023/07/19 01:53:59;;;;;;;52.65;28.85;;;;;;;;;;5047698;28;20098;-72
2023/07/19 01:56:24;;;;;;;50.10;26.73;;;;;;;;;;5045513;28;20040;-72
2023/07/19 01:58:50;;;;;;;40.38;24.45;;;;;;;;;;5045735;28;20036;-72
2023/07/19 02:01:16;;;;;;;40.20;24.52;;;;;;;;;;5046033;28;20487;-73
2023/07/19 02:03:41;;;;;;;41.35;24.98;;;;;;;;;;5046169;28;20017;-72
2023/07/19 02:06:07;;;;;;;42.97;23.75;;;;;;;;;;5044090;28;20512;-72
2023/07/19 02:08:32;;;;;;;43.58;24.73;;;;;;;;;;5059334;28;20025;-72
2023/07/19 02:10:59;;;;;;;36.15;22.52;;;;;;;;;;5045697;28;20079;-72
2023/07/19 02:13:25;;;;;;;38.03;23.23;;;;;;;;;;5041082;28;20045;-72
2023/07/19 02:15:51;;;;;;;42.65;23.77;;;;;;;;;;5044838;28;20033;-72
2023/07/19 02:18:17;;;;;;;42.42;23.75;;;;;;;;;;5045349;28;20045;-72
2023/07/19 02:20:47;;;;;;;33.60;22.52;;;;;;;;;;5045871;28;20029;-72
2023/07/19 02:23:13;;;;;;;34.30;21.70;;;;;;;;;;5045556;28;20037;-72
2023/07/19 02:25:41;;;;;;;38.55;21.88;;;;;;;;;;5044493;28;20489;-72
2023/07/19 02:28:07;;;;;;;29.67;20.52;;;;;;;;;;5045438;28;20747;-73
2023/07/19 02:30:32;;;;;;;33.28;21.35;;;;;;;;;;5045117;28;20036;-72
2023/07/19 02:32:58;;;;;;;29.77;21.15;;;;;;;;;;5042393;28;20558;-72
2023/07/19 02:35:23;;;;;;;28.30;19.25;;;;;;;;;;5044070;28;20033;-72
2023/07/19 02:37:49;;;;;;;29.85;19.90;;;;;;;;;;5045514;28;20043;-72
2023/07/19 02:40:15;;;;;;;33.08;20.35;;;;;;;;;;5037288;28;20091;-72
2023/07/19 02:42:40;;;;;;;29.85;19.60;;;;;;;;;;5045257;28;20492;-72
2023/07/19 02:45:07;;;;;;;27.83;20.30;;;;;;;;;;5040662;28;20064;-72
2023/07/19 02:47:33;;;;;;;29.10;19.67;;;;;;;;;;5043502;28;20666;-72
2023/07/19 02:49:59;;;;;;;23.13;19.08;;;;;;;;;;5041670;28;20076;-72
2023/07/19 02:52:24;;;;;;;32.60;19.50;;;;;;;;;;5040779;28;20378;-72
2023/07/19 02:54:50;;;;;;;29.77;19.85;;;;;;;;;;5041794;28;20443;-72
2023/07/19 02:57:15;;;;;;;26.48;18.67;;;;;;;;;;5045122;28;20037;-73
2023/07/19 02:59:41;;;;;;;23.92;18.60;;;;;;;;;;5045095;28;20111;-72
2023/07/19 03:02:06;;;;;;;23.25;18.27;;;;;;;;;;5036771;28;20408;-72
2023/07/19 03:04:32;;;;;;;23.58;17.70;;;;;;;;;;5043433;28;20066;-72
2023/07/19 03:06:58;;;;;;;26.20;17.58;;;;;;;;;;5041449;28;20060;-72
2023/07/19 03:09:24;;;;;;;23.60;18.77;;;;;;;;;;5044948;28;20207;-72
2023/07/19 03:11:51;;;;;;;20.08;17.58;;;;;;;;;;5045655;28;20647;-72
2023/07/19 03:14:17;;;;;;;24.83;18.42;;;;;;;;;;5044098;28;20028;-72
2023/07/19 03:16:43;;;;;;;30.63;19.23;;;;;;;;;;5044845;28;20396;-72
2023/07/19 03:19:09;;;;;;;24.40;19.33;;;;;;;;;;5044227;28;20040;-72
2023/07/19 03:21:34;;;;;;;30.77;20.08;;;;;;;;;;5040339;28;20045;-72
2023/07/19 03:24:00;;;;;;;27.05;20.08;;;;;;;;;;5044786;28;20033;-73
2023/07/19 03:26:25;;;;;;;32.33;20.85;;;;;;;;;;5044908;28;20037;-73
2023/07/19 03:28:51;;;;;;;23.45;18.42;;;;;;;;;;5046038;28;20029;-73
2023/07/19 03:31:17;;;;;;;26.25;18.42;;;;;;;;;;5044410;28;20023;-73
2023/07/19 03:33:43;;;;;;;24.23;18.45;;;;;;;;;;5041966;28;21250;-73
2023/07/19 03:36:09;;;;;;;24.90;16.73;;;;;;;;;;5043743;28;20048;-73
2023/07/19 03:38:35;;;;;;;26.50;19.52;;;;;;;;;;5041678;28;20037;-73
2023/07/19 03:41:08;;;;;;;26.13;19.20;;;;;;;;;;5040998;28;20545;-73
2023/07/19 03:43:35;;;;;;;25.10;19.35;;;;;;;;;;5040102;28;20037;-73
2023/07/19 03:46:00;;;;;;;33.80;18.92;;;;;;;;;;5041365;28;20112;-73
2023/07/19 03:48:26;;;;;;;28.08;18.83;;;;;;;;;;5053504;28;20123;-73
2023/07/19 03:50:59;;;;;;;26.52;18.52;;;;;;;;;;5057368;28;20028;-73
2023/07/19 03:53:25;;;;;;;25.75;18.98;;;;;;;;;;5059545;28;20033;-73
2023/07/19 03:55:56;;;;;;;28.23;18.90;;;;;;;;;;5041910;28;20485;-73
2023/07/19 03:58:26;;;;;;;23.55;18.63;;;;;;;;;;5042126;28;20681;-73
2023/07/19 04:00:57;;;;;;;26.10;18.63;;;;;;;;;;5024995;28;20036;-73
2023/07/19 04:03:24;;;;;;;26.88;19.02;;;;;;;;;;5042414;28;20044;-73
2023/07/19 04:05:51;;;;;;;28.05;18.92;;;;;;;;;;5042562;28;20037;-73
2023/07/19 04:08:17;;;;;;;26.15;18.75;;;;;;;;;;5043687;28;20083;-73
2023/07/19 04:10:43;;;;;;;27.25;18.25;;;;;;;;;;5044764;28;20480;-73
2023/07/19 04:13:11;;;;;;;21.15;17.73;;;;;;;;;;5042410;28;20033;-73
2023/07/19 04:15:38;;;;;;;24.25;17.60;;;;;;;;;;5040814;28;20660;-73
2023/07/19 04:18:04;;;;;;;24.23;18.25;;;;;;;;;;5042243;28;20505;-73
2023/07/19 04:20:30;;;;;;;24.67;18.10;;;;;;;;;;5039008;28;20048;-73
2023/07/19 04:22:56;;;;;;;22.38;18.13;;;;;;;;;;5039026;28;20036;-75
2023/07/19 04:25:24;;;;;;;29.92;18.65;;;;;;;;;;5043346;28;20029;-73
2023/07/19 04:27:53;;;;;;;25.20;18.55;;;;;;;;;;5040667;28;20163;-73
2023/07/19 04:30:20;;;;;;;28.38;19.80;;;;;;;;;;5040824;28;20493;-73
2023/07/19 04:32:46;;;;;;;19.42;17.38;;;;;;;;;;5041234;28;20037;-73
2023/07/19 04:35:11;;;;;;;25.73;16.83;;;;;;;;;;5040633;28;20086;-73
2023/07/19 04:37:41;;;;;;;22.83;16.75;;;;;;;;;;5041757;28;20546;-73
2023/07/19 04:40:10;;;;;;;20.60;17.08;;;;;;;;;;5040894;28;20029;-73
2023/07/19 04:42:38;;;;;;;20.15;15.48;;;;;;;;;;5037798;28;20040;-73
2023/07/19 04:45:04;;;;;;;19.90;15.88;;;;;;;;;;5041895;28;20041;-73
2023/07/19 04:47:31;;;;;;;20.57;15.63;;;;;;;;;;5040192;28;20059;-73
2023/07/19 04:49:57;;;;;;;18.40;16.05;;;;;;;;;;5043238;28;20033;-73
2023/07/19 04:52:23;;;;;;;19.25;15.77;;;;;;;;;;5052669;28;20116;-73
2023/07/19 04:54:50;;;;;;;18.40;15.73;;;;;;;;;;5041783;28;20029;-73
2023/07/19 04:57:16;;;;;;;17.17;15.52;;;;;;;;;;5043095;28;20537;-73
2023/07/19 04:59:42;;;;;;;18.75;16.33;;;;;;;;;;5041555;28;20048;-73
2023/07/19 05:02:08;;;;;;;20.55;16.02;;;;;;;;;;5043276;28;20037;-73
2023/07/19 05:04:34;;;;;;;19.25;15.52;;;;;;;;;;5041457;28;20041;-73
2023/07/19 05:06:59;;;;;;;16.90;15.25;;;;;;;;;;5043201;28;20110;-73
2023/07/19 05:09:28;;;;;;;15.93;14.30;;;;;;;;;;5042165;28;20033;-73
2023/07/19 05:11:53;;;;;;;15.70;14.18;;;;;;;;;;5042532;28;20033;-73
2023/07/19 05:14:19;;;;;;;17.13;14.52;;;;;;;;;;5042782;28;20045;-73
2023/07/19 05:16:45;;;;;;;17.02;15.18;;;;;;;;;;5043096;28;20029;-73
2023/07/19 05:19:11;;;;;;;19.38;14.73;;;;;;;;;;5040751;28;20447;-74
2023/07/19 05:21:37;;;;;;;16.27;14.77;;;;;;;;;;5041896;28;20032;-74
2023/07/19 05:24:03;;;;;;;16.52;14.30;;;;;;;;;;5042325;28;20041;-74
2023/07/19 05:26:30;;;;;;;15.65;14.25;;;;;;;;;;5042975;28;20045;-74
2023/07/19 05:28:55;;;;;;;15.38;13.82;;;;;;;;;;5042246;28;20032;-74
2023/07/19 05:31:21;;;;;;;15.98;14.38;;;;;;;;;;5043888;28;20041;-74
2023/07/19 05:33:47;;;;;;;15.75;14.30;;;;;;;;;;5043825;28;20041;-74
2023/07/19 05:36:12;;;;;;;15.50;14.10;;;;;;;;;;5041198;28;20044;-74
2023/07/19 05:38:38;;;;;;;15.02;13.73;;;;;;;;;;5043560;28;20047;-73
2023/07/19 05:41:06;;;;;;;15.45;13.95;;;;;;;;;;5043859;28;20041;-74
2023/07/19 05:43:33;;;;;;;14.67;13.37;;;;;;;;;;5044082;28;20075;-74
2023/07/19 05:46:08;;;;;;;16.42;14.32;;;;;;;;;;5040756;28;20439;-74
2023/07/19 05:48:34;;;;;;;14.63;13.35;;;;;;;;;;5042233;28;20047;-74
2023/07/19 05:51:02;;;;;;;14.90;13.45;;;;;;;;;;5042578;28;20032;-74
2023/07/19 05:53:28;;;;;;;15.30;13.98;;;;;;;;;;5042815;28;20064;-73
2023/07/19 05:55:53;;;;;;;14.60;13.32;;;;;;;;;;5046112;28;20493;-73
2023/07/19 05:58:20;;;;;;;14.68;13.43;;;;;;;;;;5047020;28;20041;-73
2023/07/19 06:00:47;;;;;;;14.57;13.27;;;;;;;;;;5041284;28;20242;-72
2023/07/19 06:03:14;;;;;;;14.90;13.40;;;;;;;;;;5039421;28;20236;-72
2023/07/19 06:05:40;;;;;;;14.10;12.82;;;;;;;;;;5042970;28;20037;-72
2023/07/19 06:08:05;;;;;;;14.02;12.82;;;;;;;;;;5045209;28;20048;-72
2023/07/19 06:10:31;;;;;;;14.43;13.13;;;;;;;;;;5044305;28;20494;-72
2023/07/19 06:12:56;;;;;;;14.00;12.48;;;;;;;;;;5046025;28;20092;-72
2023/07/19 06:15:22;;;;;;;16.17;12.82;;;;;;;;;;5037132;28;20043;-72
2023/07/19 06:17:48;;;;;;;14.23;12.98;;;;;;;;;;5046906;28;20329;-72
2023/07/19 06:20:13;;;;;;;16.55;13.63;;;;;;;;;;5046132;28;20044;-72
2023/07/19 06:22:39;;;;;;;14.65;13.20;;;;;;;;;;5047181;28;20470;-71
2023/07/19 06:25:05;;;;;;;14.38;12.82;;;;;;;;;;5045749;28;20118;-72
2023/07/19 06:27:31;;;;;;;13.80;12.50;;;;;;;;;;5047061;28;20033;-72
2023/07/19 06:29:58;;;;;;;13.93;12.50;;;;;;;;;;5046398;28;20104;-72
2023/07/19 06:32:24;;;;;;;13.82;11.98;;;;;;;;;;5029284;28;20084;-72
2023/07/19 06:34:50;;;;;;;13.70;12.40;;;;;;;;;;5044872;28;20566;-71
2023/07/19 06:37:15;;;;;;;13.35;12.23;;;;;;;;;;5045643;28;20029;-72
2023/07/19 06:39:41;;;;;;;13.35;12.15;;;;;;;;;;5046781;28;20400;-72
2023/07/19 06:42:07;;;;;;;13.90;12.52;;;;;;;;;;5045047;28;20071;-72
2023/07/19 06:44:33;;;;;;;12.95;11.80;;;;;;;;;;5046067;28;20047;-72
2023/07/19 06:46:59;;;;;;;12.68;11.68;;;;;;;;;;5046984;28;20065;-71
2023/07/19 06:49:25;;;;;;;13.65;12.18;;;;;;;;;;5044719;28;20040;-72
2023/07/19 06:51:50;;;;;;;12.82;11.65;;;;;;;;;;5043914;28;20025;-72
2023/07/19 06:54:16;;;;;;;12.77;11.68;;;;;;;;;;5046493;28;20226;-71
2023/07/19 06:56:42;;;;;;;12.45;11.23;;;;;;;;;;5046655;28;20036;-72
2023/07/19 06:59:07;;;;;;;12.70;11.57;;;;;;;;;;5043507;28;20060;-71
2023/07/19 07:01:33;;;;;;;12.20;11.07;;;;;;;;;;5045764;28;20044;-72
2023/07/19 07:03:58;;;;;;;12.55;11.32;;;;;;;;;;5045560;28;20082;-72
2023/07/19 07:06:24;;;;;;;12.93;11.57;;;;;;;;;;5046030;28;20117;-73
2023/07/19 07:08:49;;;;;;;12.15;11.05;;;;;;;;;;5044673;28;20094;-72
2023/07/19 07:11:15;;;;;;;12.23;11.02;;;;;;;;;;5044660;28;20072;-72
2023/07/19 07:13:40;;;;;;;12.30;11.10;;;;;;;;;;5046315;28;20120;-72
2023/07/19 07:16:06;;;;;;;13.75;11.23;;;;;;;;;;5046053;28;20230;-72
2023/07/19 07:18:32;;;;;;;12.50;11.40;;;;;;;;;;5042521;28;20447;-73
2023/07/19 07:20:57;;;;;;;12.18;10.98;;;;;;;;;;5045000;28;20040;-73
2023/07/19 07:23:23;;;;;;;12.90;11.50;;;;;;;;;;5046090;28;20036;-73
2023/07/19 07:25:53;;;;;;;14.38;10.77;;;;;;;;;;5043909;28;20037;-73
2023/07/19 07:28:19;;;;;;;12.02;10.75;;;;;;;;;;5037790;28;20040;-73
2023/07/19 07:30:44;;;;;;;12.38;11.27;;;;;;;;;;5043477;28;20029;-73
2023/07/19 07:33:10;;;;;;;11.48;10.48;;;;;;;;;;5043974;28;20393;-73
2023/07/19 07:35:35;;;;;;;11.23;10.13;;;;;;;;;;5041373;28;20417;-73
2023/07/19 07:38:01;;;;;;;12.85;10.57;;;;;;;;;;5044763;28;20047;-74
2023/07/19 07:40:26;;;;;;;13.20;11.30;;;;;;;;;;5045237;28;20032;-73
2023/07/19 07:42:52;;;;;;;11.80;10.70;;;;;;;;;;5045305;28;20035;-73
2023/07/19 07:45:18;;;;;;;11.80;10.50;;;;;;;;;;5042337;28;20304;-73
2023/07/19 07:47:43;;;;;;;11.30;10.30;;;;;;;;;;5044982;28;20061;-73
2023/07/19 07:50:09;;;;;;;11.52;10.52;;;;;;;;;;5045320;28;20130;-73
2023/07/19 07:52:35;;;;;;;12.10;10.88;;;;;;;;;;5044798;28;20095;-73
2023/07/19 07:55:01;;;;;;;11.40;10.40;;;;;;;;;;5043632;28;20053;-74
2023/07/19 07:57:30;;;;;;;11.77;10.77;;;;;;;;;;5045375;28;20033;-73
2023/07/19 07:59:55;;;;;;;12.00;10.90;;;;;;;;;;5044632;28;20041;-73
2023/07/19 08:02:21;;;;;;;11.32;10.32;;;;;;;;;;5043434;28;20033;-73
2023/07/19 08:04:47;;;;;;;11.43;10.32;;;;;;;;;;5045160;28;20033;-73
2023/07/19 08:07:13;;;;;;;10.85;9.85;;;;;;;;;;5045081;28;20029;-73
2023/07/19 08:09:39;;;;;;;12.35;9.80;;;;;;;;;;5040255;28;20104;-73
2023/07/19 08:12:05;;;;;;;12.07;9.18;;;;;;;;;;5044522;28;20124;-74
2023/07/19 08:14:30;;;;;;;10.50;9.60;;;;;;;;;;5044801;28;20144;-74
2023/07/19 08:16:56;;;;;;;10.48;9.38;;;;;;;;;;5042251;28;20511;-74
2023/07/19 08:19:21;;;;;;;10.18;9.35;;;;;;;;;;5044155;28;20460;-73
2023/07/19 08:21:47;;;;;;;10.07;9.07;;;;;;;;;;5044852;28;20247;-74
2023/07/19 08:24:13;;;;;;;11.30;10.25;;;;;;;;;;5044193;28;20040;-73
2023/07/19 08:26:39;;;;;;;12.77;10.02;;;;;;;;;;5041564;28;20037;-74
2023/07/19 08:29:05;;;;;;;10.77;9.82;;;;;;;;;;5043953;28;20045;-74
2023/07/19 08:31:30;;;;;;;10.35;9.27;;;;;;;;;;5044554;28;20554;-74
2023/07/19 08:33:56;;;;;;;10.00;9.25;;;;;;;;;;5045789;28;20033;-73
2023/07/19 08:36:22;;;;;;;9.90;8.73;;;;;;;;;;5042458;28;20041;-73
2023/07/19 08:38:48;;;;;;;12.93;9.23;;;;;;;;;;5042980;28;20059;-74
2023/07/19 08:41:21;;;;;;;10.20;9.40;;;;;;;;;;5044779;28;20072;-74
2023/07/19 08:43:47;;;;;;;10.32;8.63;;;;;;;;;;5043375;28;20090;-74
2023/07/19 08:46:16;;;;;;;8.95;7.88;;;;;;;;;;5039775;28;20029;-74
2023/07/19 08:48:47;;;;;;;16.02;8.93;;;;;;;;;;5044553;28;20055;-74
2023/07/19 08:51:14;;;;;;;8.90;8.20;;;;;;;;;;5044586;28;20392;-74
2023/07/19 08:53:39;;;;;;;9.00;8.23;;;;;;;;;;5044643;28;20041;-74
2023/07/19 08:56:05;;;;;;;9.25;8.27;;;;;;;;;;5043032;28;20151;-73
2023/07/19 08:58:36;;;;;;;9.15;7.82;;;;;;;;;;5043942;28;20032;-74
2023/07/19 09:01:02;;;;;;;8.48;7.88;;;;;;;;;;5044128;28;20123;-74
2023/07/19 09:03:27;;;;;;;8.27;7.68;;;;;;;;;;5043710;28;20489;-74
2023/07/19 09:05:53;;;;;;;8.20;7.60;;;;;;;;;;5044434;28;20045;-73
2023/07/19 09:08:20;;;;;;;8.43;7.57;;;;;;;;;;5044449;28;20231;-73
2023/07/19 09:10:46;;;;;;;8.30;7.63;;;;;;;;;;5044326;28;20044;-74
2023/07/19 09:13:20;;;;;;;8.50;7.90;;;;;;;;;;5042325;28;20086;-74
2023/07/19 09:15:47;;;;;;;9.05;8.25;;;;;;;;;;5040571;28;20033;-73
2023/07/19 09:18:13;;;;;;;8.27;7.57;;;;;;;;;;5043941;28;20029;-74
2023/07/19 09:20:39;;;;;;;8.20;7.60;;;;;;;;;;5043850;28;20029;-74
2023/07/19 09:23:06;;;;;;;8.00;7.40;;;;;;;;;;5041343;28;20385;-74
2023/07/19 09:25:32;;;;;;;8.15;7.35;;;;;;;;;;5043837;28;20370;-74
2023/07/19 09:27:57;;;;;;;8.27;7.47;;;;;;;;;;5045597;28;20531;-74
2023/07/19 09:30:23;;;;;;;8.35;7.75;;;;;;;;;;5045834;28;20049;-73
2023/07/19 09:33:01;;;;;;;9.98;7.72;;;;;;;;;;5048327;28;20124;-74
2023/07/19 09:35:28;;;;;;;9.17;8.27;;;;;;;;;;5048233;28;20052;-74
2023/07/19 09:37:54;;;;;;;8.43;7.70;;;;;;;;;;5047865;28;20043;-74
2023/07/19 09:40:21;;;;;;;8.05;7.43;;;;;;;;;;5045017;28;20340;-74
2023/07/19 09:42:49;;;;;;;8.93;8.10;;;;;;;;;;5048099;28;20072;-73
2023/07/19 09:45:16;;;;;;;9.30;8.60;;;;;;;;;;5041092;28;20509;-74
2023/07/19 09:47:43;;;;;;;8.48;7.88;;;;;;;;;;5046418;28;21021;-74
2023/07/19 09:50:09;;;;;;;9.50;8.50;;;;;;;;;;5047261;28;20488;-74
2023/07/19 09:52:38;;;;;;;9.48;8.60;;;;;;;;;;5045391;28;20024;-73
2023/07/19 09:55:05;;;;;;;8.57;7.80;;;;;;;;;;5043325;28;20396;-73
2023/07/19 09:57:31;;;;;;;9.05;8.35;;;;;;;;;;5047572;28;20029;-73
2023/07/19 09:59:57;;;;;;;8.40;7.70;;;;;;;;;;5046857;28;20048;-73
2023/07/19 10:02:23;;;;;;;8.60;7.90;;;;;;;;;;5045290;28;20033;-73
2023/07/19 10:04:50;;;;;;;8.45;7.70;;;;;;;;;;5047041;28;20063;-73
2023/07/19 10:07:26;;;;;;;7.28;6.60;;;;;;;;;;5047022;28;20032;-73
2023/07/19 10:10:07;;;;;;;7.43;6.72;;;;;;;;;;5045269;28;20037;-73
2023/07/19 10:12:36;;;;;;;7.40;6.80;;;;;;;;;;5043769;28;20535;-73
2023/07/19 10:15:05;;;;;;;7.50;6.88;;;;;;;;;;5046931;28;20041;-73
2023/07/19 10:17:49;;;;;;;;;;;;;;;;;;5048079;28;20036;-73
2023/07/19 10:20:15;;;;;;;8.05;7.43;;;;;;;;;;5042092;28;19943;-73
2023/07/19 10:22:57;;;;;;;7.93;7.20;;;;;;;;;;5045471;28;20278;-73
2023/07/19 10:25:31;;;;;;;7.65;6.95;;;;;;;;;;5042983;28;20047;-73
2023/07/19 10:28:07;;;;;;;8.10;7.40;;;;;;;;;;5046715;28;20114;-73
2023/07/19 10:30:46;;;;;;;7.45;6.57;;;;;;;;;;5046969;28;20040;-73
2023/07/19 10:33:13;;;;;;;7.70;7.03;;;;;;;;;;5047219;28;20032;-73
2023/07/19 10:35:39;;;;;;;8.18;7.57;;;;;;;;;;5045525;28;20090;-73
2023/07/19 10:38:05;;;;;;;8.40;7.63;;;;;;;;;;5047106;28;20040;-73
2023/07/19 10:40:31;;;;;;;8.30;7.70;;;;;;;;;;5046184;28;20578;-73
2023/07/19 10:42:56;;;;;;;8.20;7.10;;;;;;;;;;5043368;28;20037;-73
2023/07/19 10:45:25;;;;;;;7.53;6.93;;;;;;;;;;5046466;28;20029;-73
2023/07/19 10:47:52;;;;;;;7.90;7.30;;;;;;;;;;5045378;28;20230;-73
2023/07/19 10:50:17;;;;;;;10.98;7.68;;;;;;;;;;5046077;28;20040;-73
2023/07/19 10:52:46;;;;;;;8.30;7.07;;;;;;;;;;5045281;28;20029;-73
2023/07/19 10:55:13;;;;;;;;;;;;;;;;;;5046691;28;20072;-73
2023/07/19 10:57:39;;;;;;;8.73;7.93;;;;;;;;;;5045911;28;19923;-73
2023/07/19 11:00:15;;;;;;;8.43;7.65;;;;;;;;;;5043552;28;20036;-73
2023/07/19 11:02:40;;;;;;;8.55;7.93;;;;;;;;;;5046178;28;20045;-73
2023/07/19 11:05:07;;;;;;;9.05;8.00;;;;;;;;;;5046212;28;20035;-73
2023/07/19 11:07:34;;;;;;;9.30;8.50;;;;;;;;;;5044797;28;20064;-73
2023/07/19 11:10:01;;;;;;;9.10;7.85;;;;;;;;;;5044391;28;20083;-73
2023/07/19 11:12:27;;;;;;;9.50;8.73;;;;;;;;;;5044301;28;20025;-73
2023/07/19 11:14:58;;;;;;;8.93;8.23;;;;;;;;;;5046202;28;20029;-73
2023/07/19 11:17:30;;;;;;;8.70;8.10;;;;;;;;;;5044197;28;20037;-73
2023/07/19 11:19:59;;;;;;;9.32;8.50;;;;;;;;;;5044344;28;20032;-72
2023/07/19 11:22:27;;;;;;;9.95;8.95;;;;;;;;;;5045425;28;20032;-73
2023/07/19 11:24:53;;;;;;;9.88;8.50;;;;;;;;;;5045565;28;20033;-73
2023/07/19 11:27:35;;;;;;;9.68;8.90;;;;;;;;;;5044220;28;20055;-73
2023/07/19 11:30:01;;;;;;;9.52;8.32;;;;;;;;;;5044391;28;20065;-73
2023/07/19 11:32:27;;;;;;;9.48;8.70;;;;;;;;;;5045262;28;20071;-73
2023/07/19 11:34:54;;;;;;;10.45;9.50;;;;;;;;;;5042091;28;20038;-73
2023/07/19 11:37:24;;;;;;;10.23;9.15;;;;;;;;;;5045746;28;20108;-73
2023/07/19 11:39:51;;;;;;;12.63;9.00;;;;;;;;;;5044060;28;20488;-73
2023/07/19 11:42:46;;;;;;;9.63;8.63;;;;;;;;;;5045537;28;20056;-73
2023/07/19 11:45:24;;;;;;;10.27;8.48;;;;;;;;;;5042382;28;20447;-73
2023/07/19 11:47:54;;;;;;;9.70;8.68;;;;;;;;;;5045588;28;20445;-72
2023/07/19 11:50:23;;;;;;;10.00;8.98;;;;;;;;;;5044444;28;20163;-72
2023/07/19 11:52:54;;;;;;;9.52;8.70;;;;;;;;;;5044385;28;20037;-73
2023/07/19 11:55:20;;;;;;;13.35;9.18;;;;;;;;;;5045308;28;20029;-73
2023/07/19 11:57:48;;;;;;;9.18;8.40;;;;;;;;;;5044285;28;20021;-73
2023/07/19 12:00:16;;;;;;;9.05;8.27;;;;;;;;;;5042569;28;20405;-73
2023/07/19 12:02:46;;;;;;;9.70;8.77;;;;;;;;;;5042562;28;20041;-73
2023/07/19 12:05:17;;;;;;;9.60;8.82;;;;;;;;;;5042221;28;20454;-73
2023/07/19 12:07:43;;;;;;;9.90;9.00;;;;;;;;;;5045269;28;20171;-73
2023/07/19 12:10:09;;;;;;;9.90;9.00;;;;;;;;;;5045045;28;20036;-73
2023/07/19 12:12:36;;;;;;;9.48;8.48;;;;;;;;;;5041876;28;20033;-73
2023/07/19 12:15:05;;;;;;;10.25;9.27;;;;;;;;;;5045149;28;20511;-73
2023/07/19 12:17:31;;;;;;;9.88;8.90;;;;;;;;;;5044920;28;20045;-73
2023/07/19 12:19:59;;;;;;;10.90;9.63;;;;;;;;;;5042829;28;20113;-73
2023/07/19 12:22:28;;;;;;;12.40;9.70;;;;;;;;;;5044811;28;20029;-73
2023/07/19 12:24:54;;;;;;;;;;;;;;;;;;5045343;28;20032;-73
2023/07/19 12:27:19;;;;;;;11.15;9.13;;;;;;;;;;5044229;28;19923;-73
2023/07/19 12:29:45;;;;;;;10.93;9.98;;;;;;;;;;5044512;28;20190;-73
2023/07/19 12:32:10;;;;;;;10.45;9.65;;;;;;;;;;5044737;28;20111;-73
2023/07/19 12:34:36;;;;;;;10.38;9.45;;;;;;;;;;5045181;28;21017;-73
2023/07/19 12:37:02;;;;;;;10.85;9.93;;;;;;;;;;5042705;28;20580;-73
2023/07/19 12:39:27;;;;;;;10.43;9.50;;;;;;;;;;5044213;28;20033;-73
2023/07/19 12:41:55;;;;;;;11.48;9.80;;;;;;;;;;5043021;28;20045;-73
2023/07/19 12:44:21;;;;;;;10.35;9.40;;;;;;;;;;5043411;28;20041;-73
2023/07/19 12:46:50;;;;;;;12.07;10.18;;;;;;;;;;5044448;28;20041;-73
2023/07/19 12:49:16;;;;;;;;;;;;;;;;;;5044554;28;20385;-73
2023/07/19 12:51:45;;;;;;;11.05;9.93;;;;;;;;;;5040775;28;19995;-73
2023/07/19 12:54:12;;;;;;;10.60;9.55;;;;;;;;;;5043085;28;20111;-74
2023/07/19 12:56:38;;;;;;;15.85;10.57;;;;;;;;;;5044502;28;20261;-73
2023/07/19 12:59:04;;;;;;;14.68;11.10;;;;;;;;;;5042729;28;20532;-73
2023/07/19 13:01:30;;;;;;;11.98;10.82;;;;;;;;;;5039925;28;20049;-73
2023/07/19 13:03:55;;;;;;;10.68;9.77;;;;;;;;;;5048158;28;20396;-73
2023/07/19 13:06:21;;;;;;;11.52;10.52;;;;;;;;;;5048246;28;20033;-73
2023/07/19 13:08:47;;;;;;;14.07;10.63;;;;;;;;;;5048423;28;20037;-73
2023/07/19 13:11:13;;;;;;;11.70;10.90;;;;;;;;;;5045465;28;20044;-73
2023/07/19 13:13:38;;;;;;;11.73;10.70;;;;;;;;;;5048651;28;20040;-73
2023/07/19 13:16:04;;;;;;;12.30;11.30;;;;;;;;;;5048455;28;20175;-73
2023/07/19 13:18:30;;;;;;;12.43;11.25;;;;;;;;;;5048353;28;20037;-73
2023/07/19 13:20:57;;;;;;;14.50;11.57;;;;;;;;;;5047159;28;20139;-73
2023/07/19 13:23:23;;;;;;;12.40;11.27;;;;;;;;;;5042228;28;20047;-73
2023/07/19 13:25:49;;;;;;;12.10;11.13;;;;;;;;;;5046094;28;20036;-73
2023/07/19 13:28:15;;;;;;;12.85;11.45;;;;;;;;;;5045916;28;20330;-73
2023/07/19 13:30:41;;;;;;;12.80;11.68;;;;;;;;;;5043616;28;20307;-73
2023/07/19 13:33:07;;;;;;;11.93;10.98;;;;;;;;;;5046157;28;20033;-73
2023/07/19 13:35:34;;;;;;;12.32;11.23;;;;;;;;;;5046126;28;20033;-73
2023/07/19 13:37:59;;;;;;;12.45;11.32;;;;;;;;;;5045653;28;20334;-73
2023/07/19 13:40:25;;;;;;;11.75;10.73;;;;;;;;;;5043370;28;20052;-73
2023/07/19 13:42:51;;;;;;;12.52;11.32;;;;;;;;;;5046028;28;20119;-73
2023/07/19 13:45:17;;;;;;;12.70;11.52;;;;;;;;;;5045955;28;20037;-74
2023/07/19 13:47:43;;;;;;;12.75;11.10;;;;;;;;;;5046497;28;20543;-73
2023/07/19 13:50:09;;;;;;;12.27;11.27;;;;;;;;;;5043979;28;20033;-73
2023/07/19 13:52:34;;;;;;;12.57;10.95;;;;;;;;;;5045838;28;20102;-73
2023/07/19 13:55:00;;;;;;;12.27;11.02;;;;;;;;;;5045717;28;20182;-73
2023/07/19 13:57:27;;;;;;;12.10;10.68;;;;;;;;;;5043100;28;20036;-73
2023/07/19 13:59:52;;;;;;;12.90;11.40;;;;;;;;;;5045446;28;20045;-73
2023/07/19 14:02:18;;;;;;;12.50;11.48;;;;;;;;;;5045228;28;20400;-73
2023/07/19 14:04:43;;;;;;;12.57;11.32;;;;;;;;;;5045823;28;20036;-73
2023/07/19 14:07:09;;;;;;;11.85;10.70;;;;;;;;;;5043878;28;20040;-74
2023/07/19 14:09:34;;;;;;;12.02;11.02;;;;;;;;;;5045508;28;20390;-73
2023/07/19 14:12:02;;;;;;;11.65;10.65;;;;;;;;;;5045261;28;20040;-73
2023/07/19 14:14:27;;;;;;;11.23;10.18;;;;;;;;;;5046909;28;20037;-73
2023/07/19 14:16:53;;;;;;;11.00;10.20;;;;;;;;;;5042817;28;20036;-73
2023/07/19 14:19:18;;;;;;;11.38;10.50;;;;;;;;;;5045093;28;20091;-74
2023/07/19 14:21:44;;;;;;;12.30;11.13;;;;;;;;;;5027249;28;20396;-73
2023/07/19 14:24:09;;;;;;;14.90;9.85;;;;;;;;;;5042747;28;20124;-73